ADDS METAR Data INFO
IDs: Format: Raw Decoded Include TAF

Data at: 2054 UTC 24 Jun 2017

KLXY 242035Z AUTO 09005KT 10SM BKN018 BKN025 26/21 A3006 RMK AO2 T02580213
KLXY 242015Z AUTO 12005KT 10SM BKN020 26/21 A3006 RMK AO2 T02580212
KLXY 241955Z AUTO 13006KT 10SM BKN020 26/21 A3007 RMK AO2 T02620210
KLXY 241940Z AUTO 10007KT 7SM SCT020 26/21 A3007 RMK AO2 T02580208
KLXY 241915Z AUTO 13006KT 10SM SCT020 26/21 A3008 RMK AO2 T02570208
KLXY 241855Z AUTO 16005KT 10SM SCT020 25/20 A3009 RMK AO2 T02530203
KLXY 241835Z AUTO 10004KT 10SM SCT018 25/20 A3010 RMK AO2 T02530204
KLXY 241815Z AUTO 23004KT 10SM SCT016 25/20 A3010 RMK AO2 LTG DSNT S T02520204
KLXY 241755Z AUTO 02005KT 10SM SCT016 25/21 A3011 RMK AO2 60010 T02520210 10252 20204
KLXY 241735Z AUTO 01004KT 10SM SCT009 25/21 A3012 RMK AO2 T02480214
KLXY 241715Z AUTO 27005KT 10SM SCT009 SCT013 24/21 A3014 RMK AO2 T02370214
KLXY 241655Z AUTO 32011G22KT 10SM BKN007 23/21 A3013 RMK AO2 T02320214
KLXY 241635Z AUTO 34013G20KT 10SM BKN007 BKN120 23/21 A3012 RMK AO2 T02250214
KLXY 241615Z AUTO 32010G21KT 300V360 10SM SCT007 BKN100 22/21 A3012 RMK AO2 LTG DSNT S T02220213
KLXY 241555Z AUTO 32015G21KT 10SM SCT044 SCT060 BKN100 22/21 A3010 RMK AO2 LTG DSNT S P0001 T02150208
KLXY 241535Z AUTO 32011KT 10SM -RA SCT050 BKN075 OVC090 21/20 A3013 RMK AO2 LTG DSNT NW P0001 T02110203
KLXY 241515Z AUTO 33011G21KT 300V010 10SM -RA OVC090 21/20 A3013 RMK AO2 T02110203
KLXY 241455Z AUTO 32014G21KT 10SM -RA OVC100 21/20 A3011 RMK AO2 P0001 60009 T02100203
KLXY 241435Z AUTO 32014G20KT 10SM -RA OVC110 21/21 A3009 RMK AO2 LTG DSNT SE AND W T02110205
KLXY 241415Z AUTO 33008G17KT 10SM -DZ SCT085 BKN110 21/20 A3007 RMK AO2 LTG DSNT S T02100204
KLXY 241355Z AUTO 31009G18KT 280V340 10SM -DZ SCT050 SCT065 BKN110 21/20 A3006 RMK AO2 LTG DSNT N S AND NW P0001 T02100203
KLXY 241335Z AUTO 26006G16KT 10SM RA SCT080 BKN100 OVC120 21/20 A3006 RMK AO2 LTG DSNT N SE AND S P0001 T02070201
KLXY 241315Z AUTO 28013G17KT 10SM -RA OVC110 21/20 A3005 RMK AO2 LTG DSNT SE W AND NW T02060200
KLXY 241300Z AUTO 27013G17KT 10SM -RA BKN120 21/20 A3006 RMK AO2 LTG DSNT W THRU N T02060200
KLXY 241235Z AUTO 23005KT 10SM -RA OVC100 21/20 A3006 RMK AO2 LTG DSNT SE AND S P0006 T02050198
KLXY 241215Z AUTO 25004KT 10SM RA OVC110 21/20 A3006 RMK AO2 LTG DSNT ALQS P0003 T02050198
KLXY 241155Z AUTO 14003KT 10SM RA OVC110 21/20 A3003 RMK AO2 LTG DSNT SE THRU NW P0006 60015 70015 T02050197 10270 20201
KLXY 241135Z AUTO 16003KT 10SM RA BKN110 20/20 A3004 RMK AO2 LTG DSNT SE W AND NW P0003 T02040197
KLXY 241115Z AUTO 16005KT 10SM VCTSRA OVC110 21/20 A3002 RMK AO2 LTG DSNT ALQS P0001 T02050197
KLXY 241055Z AUTO 00000KT 10SM -VCTSRA SCT014 SCT060 OVC110 20/20 A3002 RMK AO2 LTG DSNT SW THRU NE P0004 T02020196
KLXY 241035Z AUTO 12009G18KT 100V170 10SM VCTSRA SCT008 SCT023 OVC110 20/20 A3001 RMK AO2 LTG DSNT ALQS P0002 T02040196
KLXY 241015Z AUTO 14005KT 10SM -TSRA OVC110 21/20 A3003 RMK AO2 LTG DSNT ALQS P0001 T02060195
KLXY 240955Z AUTO 30004KT 10SM -RA SCT045 SCT060 OVC090 21/19 A3003 RMK AO2 LTG DSNT ALQS P0005 T02050192
KLXY 240935Z AUTO 04012G24KT 10SM VCTSRA SCT014 BKN041 OVC075 21/19 A3003 RMK AO2 LTG DSNT ALQS P0003 T02050191
KLXY 240915Z AUTO 08021G31KT 10SM VCTS SCT016 SCT038 BKN080 26/22 A3002 RMK AO2 LTG DSNT ALQS T02550219
KLXY 240855Z AUTO 12009KT 10SM SCT080 26/24 A2997 RMK AO2 LTG DSNT NW THRU E T02580235
KLXY 240835Z AUTO 15005KT 10SM CLR 26/24 A2996 RMK AO2 LTG DSNT NW THRU E T02580235
KLXY 240815Z AUTO 19010KT 10SM SCT080 SCT110 26/24 A2996 RMK AO2 LTG DSNT NW THRU NE T02600235
KLXY 240755Z AUTO 19010KT 10SM SCT110 26/24 A2995 RMK AO2 LTG DSNT N AND NE T02610237
KLXY 240735Z AUTO 19010KT 10SM CLR 26/24 A2993 RMK AO2 LTG DSNT N AND NE T02610240
KLXY 240715Z AUTO 18012KT 10SM CLR 26/24 A2994 RMK AO2 LTG DSNT N AND NE T02640241
KLXY 240655Z AUTO 18012KT 130V190 10SM CLR 27/24 A2993 RMK AO2 LTG DSNT NE AND E T02650243
KLXY 240635Z AUTO 18011G14KT 10SM CLR 27/24 A2994 RMK AO2 LTG DSNT N T02670242
KLXY 240615Z AUTO 14007KT 110V180 10SM CLR 27/24 A2994 RMK AO2 LTG DSNT N AND NW T02680241
KLXY 240555Z AUTO 13007KT 100V180 10SM SCT050 27/24 A2993 RMK AO2 LTG DSNT NE AND E T02700240 10337 20270 403590230
KLXY 240535Z AUTO 11009KT 10SM BKN050 27/24 A2993 RMK AO2 T02720238
KLXY 240515Z AUTO 12005KT 10SM SCT050 27/24 A2993 RMK AO2 T02730236
KLXY 240455Z AUTO 14004KT 10SM CLR 28/24 A2992 RMK AO2 LTG DSNT NE T02780235
KLXY 240435Z AUTO 13004KT 10SM CLR 28/24 A2990 RMK AO2 T02790235
KLXY 240415Z AUTO 00000KT 10SM CLR 28/24 A2989 RMK AO2 LTG DSNT NE T02800236
KLXY 240355Z AUTO 14004KT 10SM CLR 28/24 A2988 RMK AO2 T02830239
KLXY 240336Z AUTO 13004KT 10SM CLR 28/24 A2988 RMK AO2
KLXY 240315Z AUTO 00000KT 10SM CLR 29/24 A2987 RMK AO2 T02900240
KLXY 240255Z AUTO 11004KT 10SM CLR 29/24 A2986 RMK AO2 T02900240
KLXY 240235Z AUTO 00000KT 10SM CLR 29/24 A2985 RMK AO2 T02930239
KLXY 240215Z AUTO 00000KT 10SM CLR 30/24 A2984 RMK AO2 T02980238
KLXY 240155Z AUTO 14004KT 10SM CLR 30/24 A2983 RMK AO2 T03030238
KLXY 240135Z AUTO 14005KT 10SM CLR 31/24 A2983 RMK AO2 T03090238
KLXY 240115Z AUTO 14004KT 10SM CLR 32/24 A2982 RMK AO2 T03150237
KLXY 240055Z AUTO 15006KT 10SM CLR 32/24 A2981 RMK AO2 T03230236
KLXY 240035Z AUTO 15010G15KT 10SM CLR 33/24 A2980 RMK AO2 T03300237
KLXY 240015Z AUTO 15009G14KT 10SM CLR 34/24 A2980 RMK AO2 T03350237
KLXY 232355Z AUTO 14010G15KT 10SM CLR 34/24 A2980 RMK AO2 T03380237 10359 20335
KLXY 232335Z AUTO 16008KT 120V180 10SM SCT049 34/24 A2980 RMK AO2 T03420238
KLXY 232315Z AUTO 15011KT 10SM SCT045 35/24 A2979 RMK AO2 T03480240
KLXY 232255Z AUTO 16009G14KT 10SM CLR 35/24 A2979 RMK AO2 T03520237
KLXY 232235Z AUTO 15011G19KT 10SM SCT047 35/23 A2979 RMK AO2 T03520232
KLXY 232215Z AUTO 14010G16KT 110V170 10SM CLR 35/23 A2979 RMK AO2 T03530234
KLXY 232155Z AUTO 18008G14KT 130V200 10SM SCT046 35/24 A2980 RMK AO2 T03520237
KLXY 232135Z AUTO 14008KT 100V180 10SM CLR 36/24 A2980 RMK AO2 T03550238
KLXY 232115Z AUTO 11007KT 10SM SCT049 36/24 A2980 RMK AO2 T03560237
KLXY 232055Z AUTO 18007G17KT 10SM SCT047 35/23 A2980 RMK AO2 T03490234
KLXY 232035Z AUTO 17008KT 150V210 10SM SCT047 36/24 A2980 RMK AO2 T03570238
KLXY 232015Z AUTO 16009G18KT 140V200 10SM SCT047 36/24 A2981 RMK AO2 T03570238
KLXY 231955Z AUTO 17006G18KT 10SM SCT047 35/23 A2981 RMK AO2 T03530233
KLXY 231935Z AUTO 21008G14KT 150V220 10SM SCT045 35/24 A2981 RMK AO2 T03510237
KLXY 231915Z AUTO 17010G19KT 120V210 10SM SCT042 35/24 A2981 RMK AO2 T03500238
KLXY 231855Z AUTO 17005G21KT 10SM SCT041 35/23 A2981 RMK AO2 T03460234
KLXY 231835Z AUTO 17011G21KT 10SM SCT041 34/24 A2981 RMK AO2 T03410238
KLXY 231815Z AUTO 16009G20KT 10SM CLR 34/24 A2982 RMK AO2 T03400239
KLXY 231755Z AUTO 21009G19KT 10SM CLR 34/24 A2982 RMK AO2 T03360235 10338 20233
KLXY 231735Z AUTO 17008G18KT 10SM CLR 33/24 A2981 RMK AO2 T03330238
KLXY 231715Z AUTO 19009G16KT 10SM CLR 33/24 A2982 RMK AO2 T03260237
KLXY 231655Z AUTO 19010G17KT 10SM CLR 32/24 A2982 RMK AO2 T03240236
KLXY 231635Z AUTO 19013G17KT 10SM CLR 32/24 A2982 RMK AO2 T03220236
KLXY 231615Z AUTO 17015G20KT 10SM SCT027 31/24 A2981 RMK AO2 T03130235
KLXY 231555Z AUTO 18010G26KT 10SM SCT025 31/23 A2981 RMK AO2 T03070233
KLXY 231535Z AUTO 20010G20KT 10SM SCT025 31/23 A2982 RMK AO2 T03060233
KLXY 231515Z AUTO 20010G22KT 10SM SCT024 30/23 A2983 RMK AO2 T03000230
KLXY 231455Z AUTO 20013G25KT 10SM CLR 30/23 A2982 RMK AO2 LTG DSNT E T02950228
KLXY 231435Z AUTO 21013G26KT 10SM CLR 29/23 A2981 RMK AO2 T02910231
KLXY 231415Z AUTO 19010G27KT 10SM CLR 28/23 A2981 RMK AO2 T02840232
KLXY 231355Z AUTO 19012G21KT 10SM CLR 28/24 A2980 RMK AO2 T02760236
KLXY 231335Z AUTO 17012G21KT 10SM SCT011 27/24 A2979 RMK AO2 T02670238
KLXY 231315Z AUTO 18007KT 10SM SCT005 BKN008 25/25 A2979 RMK AO2 T02500245
KLXY 231255Z AUTO 16007KT 10SM SCT002 BKN008 24/24 A2978 RMK AO2 T02430238
KLXY 231235Z AUTO 15007KT 120V180 5SM BR SCT002 24/23 A2977 RMK AO2 T02370232
KLXY 231215Z AUTO 13007KT 4SM BR BKN002 24/23 A2976 RMK AO2 T02350230
KLXY 231155Z AUTO 15008KT 120V180 3SM BR BKN002 23/23 A2976 RMK AO2 T02330228 10243 20230
KLXY 231135Z AUTO 17007KT 120V180 4SM BR BKN002 23/23 A2976 RMK AO2 T02320227
KLXY 231115Z AUTO 15005KT 4SM BR SCT002 23/23 A2975 RMK AO2 T02300225
KLXY 231055Z AUTO 13006KT 5SM BR SCT002 23/23 A2975 RMK AO2 LTG DSNT N T02310226
KLXY 231035Z AUTO 13006KT 5SM BR CLR 23/23 A2974 RMK AO2 T02320227
KLXY 231015Z AUTO 14007KT 7SM CLR 23/23 A2974 RMK AO2 T02330228
KLXY 230955Z AUTO 14007KT 10SM CLR 24/23 A2974 RMK AO2 T02350230
KLXY 230935Z AUTO 15007KT 10SM CLR 24/23 A2974 RMK AO2 T02360231
KLXY 230915Z AUTO 14008KT 10SM CLR 24/23 A2974 RMK AO2 T02360230
KLXY 230855Z AUTO 14008KT 120V180 10SM CLR 24/23 A2974 RMK AO2 T02360230


Page loaded:  20:54 UTC  |   01:54 PM Pacific  |   02:54 PM Mountain  |   03:54 PM Central  |   04:54 PM Eastern

 

ADVISORIES

FORECASTS

FORECASTS

OBSERVATIONS

USER TOOLS

ABOUT US